Česky Dansk Deutsch English Español Suomi Français Magyar Italiano Nederlands norsk Polski Português svenska Türkçe

 

Het Weer

Rodez (Frankrijk)

10:00, 22 augustus 2016 (GMT)

NWNNE
WE
SWSSE
Home            
Rodez Cassagnes-Begonhes Aurillac Albi Mende / Brenoux Brive Toulouse / Blagnac Le Puy Toulouse / Francazal Carcassonne Beziers / Vias Montpellier Agen Perigueux Bergerac Clermont-Ferrand Nimes / Courbessac Auch Nimes / Garons Montelimar Perpignan Orange St-Etienne Boutheon

Om een weerknop op uw website of weblog te plaatsen, copieer onderstaande code en plak die in uw pagina. In het eerste vakje staat HTML-code, in het tweede vakje UBB-code.


Add to Google

Details

Wind speed:1 bf, 3 kn, 1.5 m/s, 3.5 miles/h, 5.6 km/h
Wind direction:W, 260° - ENE, 060°
Visibility:Greater than 10000 m, 10 km, 32800 ft, 6.2 miles
Clouds:CAVOC
Temperature:21°C, 70°F
Dew-point:8°C, 46°F
Atmospheric pressure:1027 hPa, 770.3 mmHg, 30.33 inHg, 1.014 atm
Relative humidity:43.1 %
METAR:LFCR 221000Z AUTO 36003KT 260V060 CAVOK 21/08 Q1027 NOSIG

Snelkoppelingen

Actuele weersinformatie van de hele wereld. Voeg locaties toe met het plus (+) symbool. Deze snelkoppelingen kunnen worden toegevoegd aan Google.

Lid van de Technetium groep

website free tracking
StatCounter NetStat W3C Validator

07-10-2022 07:43:33
astro.technetium.be money.technetium.be phote.technetium.be tafeltennistafel.technetium.be www.ligfiets.net